Time;durP1;ratioP1;P1;durP2;ratioP2;P2;SDS_P1;SDS_P2;PMS_P1;PMS_P2;Temp;Humidity;BMP_temperature;BMP_pressure;BME280_temperature;BME280_humidity;BME280_pressure;Samples;Min_cycle;Max_cycle;Signal;HPM_P1;HPM_P2
2021/12/17 16:24:39;;;;;;;3.35;2.40;;;;;;;13.99;64.46;103928.34;5108391;27;1229520;-65
2021/12/17 16:27:44;;;;;;;3.00;2.47;;;;;;;14.04;64.31;103928.44;5070808;28;20395;-65
2021/12/17 16:30:10;;;;;;;5.00;2.47;;;;;;;13.98;64.49;103918.75;5070558;28;20135;-65
2021/12/17 16:32:36;;;;;;;5.07;2.30;;;;;;;14.11;64.15;103929.44;5068507;28;20119;-65
2021/12/17 16:35:02;;;;;;;3.93;2.70;;;;;;;14.11;63.81;103929.44;5070342;28;20429;-65
2021/12/17 16:37:27;;;;;;;3.47;2.47;;;;;;;14.09;64.06;103932.03;5069362;28;20259;-65
2021/12/17 16:39:53;;;;;;;4.53;2.60;;;;;;;14.12;64.06;103936.44;5070042;28;20525;-65
2021/12/17 16:42:18;;;;;;;3.67;2.30;;;;;;;14.14;63.98;103942.56;5070046;28;20021;-66
2021/12/17 16:47:32;;;;;;;3.53;2.42;;;;;;;14.20;64.12;103953.13;5067017;28;20052;-66
2021/12/17 16:49:59;;;;;;;3.85;2.50;;;;;;;14.18;64.09;103942.66;5069210;28;20021;-65
2021/12/17 16:52:26;;;;;;;4.20;2.40;;;;;;;14.18;64.10;103949.63;5069241;28;20123;-66
2021/12/17 16:54:53;;;;;;;5.05;2.70;;;;;;;14.20;63.69;103950.50;5068190;28;20029;-65
2021/12/17 16:57:19;;;;;;;4.10;2.40;;;;;;;14.19;63.97;103949.63;5069764;28;20086;-65
2021/12/17 16:59:45;;;;;;;3.13;2.33;;;;;;;14.18;63.95;103945.25;5069668;28;20032;-65
2021/12/17 17:02:10;;;;;;;4.90;2.50;;;;;;;14.12;63.89;103931.19;5069840;28;20037;-65
2021/12/17 17:04:35;;;;;;;3.47;2.30;;;;;;;14.22;63.90;103959.25;5069906;28;20045;-65
2021/12/17 17:07:01;;;;;;;3.17;2.40;;;;;;;14.23;63.81;103950.56;5067790;28;20040;-64
2021/12/17 17:09:28;;;;;;;3.97;2.40;;;;;;;14.23;63.91;103952.31;5063132;28;20064;-64
2021/12/17 17:12:01;;;;;;;3.58;2.30;;;;;;;14.19;63.82;103943.50;5067634;28;20028;-65
2021/12/17 17:14:27;;;;;;;3.28;2.38;;;;;;;14.17;63.73;103946.09;5067578;28;20040;-65
2021/12/17 17:16:53;;;;;;;4.20;2.50;;;;;;;14.24;63.75;103951.47;5054328;28;20033;-65
2021/12/17 17:19:18;;;;;;;3.70;2.60;;;;;;;14.23;63.80;103955.78;5049958;28;20032;-64
2021/12/17 17:21:43;;;;;;;2.97;2.20;;;;;;;14.23;63.74;103953.19;5047246;28;20108;-65
2021/12/17 17:24:10;;;;;;;6.93;4.10;;;;;;;14.16;62.63;103946.97;5047664;28;20030;-64
2021/12/17 17:26:35;;;;;;;;;;;;;;;14.28;63.29;103948.03;5047834;28;20059;-65
2021/12/17 17:29:03;;;;;;;4.97;2.90;;;;;;;14.18;63.10;103957.47;5047581;28;20007;-64
2021/12/17 17:31:30;;;;;;;3.63;2.90;;;;;;;14.16;62.93;103951.31;5049508;28;20442;-66
2021/12/17 17:33:56;;;;;;;3.20;2.60;;;;;;;14.15;63.21;103957.38;5046944;28;20033;-65
2021/12/17 17:36:23;;;;;;;4.13;2.77;;;;;;;14.15;63.14;103962.63;5049075;28;20533;-64
2021/12/17 17:38:49;;;;;;;3.55;2.72;;;;;;;14.19;63.28;103964.41;5041360;28;20068;-64
2021/12/17 17:41:17;;;;;;;5.38;2.83;;;;;;;14.19;63.08;103954.88;5045353;28;20064;-63
2021/12/17 17:43:44;;;;;;;4.07;2.53;;;;;;;14.20;63.00;103966.19;5045006;28;20033;-63
2021/12/17 17:46:09;;;;;;;2.65;2.40;;;;;;;14.20;63.03;103963.56;5043126;28;20049;-63
2021/12/17 17:48:36;;;;;;;3.30;2.53;;;;;;;14.28;63.34;103968.94;5043238;28;20648;-64
2021/12/17 17:51:01;;;;;;;3.35;2.53;;;;;;;14.26;63.41;103953.25;5041470;28;20075;-64
2021/12/17 17:53:27;;;;;;;5.27;2.73;;;;;;;14.30;63.33;103964.63;5043620;28;20034;-65
2021/12/17 17:55:52;;;;;;;4.27;2.40;;;;;;;14.28;63.31;103961.09;5043718;28;20037;-65
2021/12/17 17:58:17;;;;;;;4.50;2.50;;;;;;;14.32;63.36;103955.97;5042735;28;20100;-64
2021/12/17 18:00:43;;;;;;;3.60;2.40;;;;;;;14.33;63.37;103962.09;5044352;28;20029;-65
2021/12/17 18:03:09;;;;;;;3.03;2.30;;;;;;;14.30;63.46;103957.66;5035402;28;20032;-66
2021/12/17 18:05:36;;;;;;;3.53;2.30;;;;;;;14.27;63.61;103944.56;5046763;28;20033;-65
2021/12/17 18:08:03;;;;;;;4.15;2.20;;;;;;;14.32;63.34;103948.13;5051195;28;20622;-65
2021/12/17 18:10:28;;;;;;;4.28;2.38;;;;;;;14.34;63.56;103950.78;5057063;28;20444;-64
2021/12/17 18:12:56;;;;;;;3.07;2.23;;;;;;;14.25;63.62;103935.81;5044585;28;20060;-65
2021/12/17 18:15:23;;;;;;;3.00;2.20;;;;;;;14.30;63.63;103943.72;5052850;28;20029;-65
2021/12/17 18:17:49;;;;;;;3.70;2.10;;;;;;;14.32;63.56;103948.13;5052477;28;20075;-64
2021/12/17 18:20:16;;;;;;;3.17;2.20;;;;;;;14.33;63.66;103949.88;5049423;28;20426;-65
2021/12/17 18:22:44;;;;;;;3.70;2.10;;;;;;;14.34;63.55;103953.41;5052242;28;20096;-66
2021/12/17 18:25:10;;;;;;;3.50;2.20;;;;;;;14.33;63.66;103965.56;5052629;28;20029;-65
2021/12/17 18:27:36;;;;;;;2.90;2.03;;;;;;;14.33;63.78;103956.88;5051853;28;20092;-63
2021/12/17 18:30:12;;;;;;;4.78;2.35;;;;;;;14.34;63.63;103956.88;5052599;28;20129;-65
2021/12/17 18:32:41;;;;;;;4.10;2.13;;;;;;;14.30;64.10;103949.81;5052487;28;20059;-63
2021/12/17 18:35:09;;;;;;;2.72;2.00;;;;;;;14.32;63.79;103955.09;5053002;28;20096;-65
2021/12/17 18:37:35;;;;;;;2.08;1.88;;;;;;;14.33;63.58;103956.88;5042656;28;20037;-63
2021/12/17 18:40:04;;;;;;;2.25;1.92;;;;;;;14.32;63.80;103955.97;5051099;28;20040;-64
2021/12/17 18:45:13;;;;;;;3.00;1.90;;;;;;;14.36;64.05;103962.13;5052467;28;20129;-65
2021/12/17 18:47:39;;;;;;;2.77;1.90;;;;;;;14.38;63.91;103970.00;5052247;28;20115;-64
2021/12/17 18:50:05;;;;;;;2.50;2.10;;;;;;;14.38;63.91;103963.03;5049798;28;20036;-65
2021/12/17 18:52:30;;;;;;;3.70;1.88;;;;;;;14.40;63.72;103963.09;5051928;28;20033;-64
2021/12/17 18:54:55;;;;;;;2.70;1.90;;;;;;;14.39;63.91;103966.56;5052036;28;20072;-65
2021/12/17 18:57:21;;;;;;;2.50;1.80;;;;;;;14.33;63.88;103956.88;5051830;28;20068;-64
2021/12/17 18:59:47;;;;;;;3.73;1.90;;;;;;;14.38;64.12;103975.25;5052055;28;20079;-65
2021/12/17 19:02:13;;;;;;;2.65;1.90;;;;;;;14.38;63.97;103962.16;5052120;28;20025;-64
2021/12/17 19:04:38;;;;;;;2.60;2.03;;;;;;;14.40;63.91;103976.16;5050617;28;20029;-65
2021/12/17 19:07:04;;;;;;;2.70;1.93;;;;;;;14.36;64.12;103962.13;5051817;28;20530;-64
2021/12/17 19:09:29;;;;;;;3.53;1.90;;;;;;;14.37;64.10;103961.28;5051972;28;20041;-65
2021/12/17 19:11:55;;;;;;;2.30;1.90;;;;;;;14.41;64.09;103959.63;5041278;28;20057;-65
2021/12/17 19:14:25;;;;;;;2.03;1.80;;;;;;;14.41;64.09;103965.72;5046255;28;20494;-62
2021/12/17 19:16:50;;;;;;;2.60;2.08;;;;;;;14.39;64.04;103961.31;5032493;28;20038;-64
2021/12/17 19:19:37;;;;;;;3.27;2.00;;;;;;;14.41;63.99;103963.09;5032787;28;20038;-64
2021/12/17 19:22:24;;;;;;;2.25;1.92;;;;;;;14.38;64.11;103954.34;5050729;28;20037;-64
2021/12/17 19:24:50;;;;;;;3.08;2.13;;;;;;;14.42;64.13;103953.50;5051761;28;20041;-65
2021/12/17 19:27:16;;;;;;;3.27;1.90;;;;;;;14.42;64.17;103957.03;5033979;28;20111;-64
2021/12/17 19:29:42;;;;;;;3.05;2.00;;;;;;;14.38;64.14;103947.34;5031354;28;20268;-64
2021/12/17 19:32:07;;;;;;;2.47;1.90;;;;;;;14.41;64.12;103949.19;5032203;28;20482;-65
2021/12/17 19:34:34;;;;;;;2.07;1.87;;;;;;;14.43;64.22;103957.91;5030231;28;20117;-65
2021/12/17 19:36:59;;;;;;;2.05;1.85;;;;;;;14.35;64.35;103948.19;5028828;28;20091;-64
2021/12/17 19:39:24;;;;;;;2.43;2.20;;;;;;;14.43;63.93;103963.13;5030539;28;20088;-64
2021/12/17 19:41:50;;;;;;;2.13;1.93;;;;;;;14.45;64.08;103961.41;5032617;28;20065;-64
2021/12/17 19:44:17;;;;;;;2.30;2.00;;;;;;;14.43;64.05;103961.41;5046663;28;20257;-64
2021/12/17 19:46:55;;;;;;;2.47;2.22;;;;;;;14.43;64.04;103958.78;5032649;28;20041;-64
2021/12/17 19:51:46;;;;;;;2.20;2.00;;;;;;;14.44;64.19;103965.78;5033054;28;20041;-65
2021/12/17 19:54:11;;;;;;;5.13;2.20;;;;;;;14.45;64.22;103974.50;5032668;28;20444;-65
2021/12/17 19:56:37;;;;;;;2.97;2.27;;;;;;;14.43;64.26;103973.56;5032584;28;20040;-65
2021/12/17 19:59:06;;;;;;;3.13;2.00;;;;;;;14.44;64.22;103972.72;5032731;28;20025;-65
2021/12/17 20:01:31;;;;;;;3.28;2.10;;;;;;;14.45;64.05;103971.88;5031864;28;20071;-65
2021/12/17 20:04:00;;;;;;;3.77;2.07;;;;;;;14.43;64.17;103974.47;5034933;28;20460;-65
2021/12/17 20:06:26;;;;;;;3.90;2.60;;;;;;;14.39;64.25;103963.94;5033006;28;20036;-65
2021/12/17 20:08:53;;;;;;;3.45;2.33;;;;;;;14.45;64.06;103975.38;5032712;28;20060;-65
2021/12/17 20:11:21;;;;;;;3.50;2.38;;;;;;;14.40;63.95;103958.72;5031833;28;20475;-65
2021/12/17 20:13:47;;;;;;;2.72;2.40;;;;;;;14.41;63.99;103963.09;5048054;28;20040;-65
2021/12/17 20:16:14;;;;;;;3.35;2.30;;;;;;;14.44;64.18;103965.78;5050616;28;20036;-65
2021/12/17 20:18:40;;;;;;;4.70;2.60;;;;;;;14.45;64.18;103964.94;5050644;28;20064;-65
2021/12/17 20:21:07;;;;;;;4.28;2.55;;;;;;;14.47;64.15;103967.56;5036368;28;20033;-65
2021/12/17 20:23:34;;;;;;;5.13;2.53;;;;;;;14.46;64.06;103974.53;5031380;28;20033;-65
2021/12/17 20:26:00;;;;;;;4.78;2.50;;;;;;;14.42;63.93;103962.25;5049302;28;20155;-65
2021/12/17 20:28:27;;;;;;;2.97;2.40;;;;;;;14.46;64.06;103964.09;5046135;28;20502;-64
2021/12/17 20:30:52;;;;;;;2.67;2.30;;;;;;;14.44;63.92;103962.28;5029715;28;20371;-64
2021/12/17 20:33:18;;;;;;;3.67;2.60;;;;;;;14.48;64.05;103966.72;5044098;28;20075;-64
2021/12/17 20:35:43;;;;;;;4.00;2.47;;;;;;;14.45;63.75;103964.03;5045680;28;20029;-64
2021/12/17 20:38:09;;;;;;;3.90;2.70;;;;;;;14.50;64.08;103965.00;5036293;28;20032;-65
2021/12/17 20:40:34;;;;;;;3.37;2.47;;;;;;;14.50;63.86;103968.50;5049767;28;20107;-63
2021/12/17 20:43:07;;;;;;;2.90;2.50;;;;;;;14.51;63.75;103969.38;5035282;28;20045;-64
2021/12/17 20:45:33;;;;;;;4.07;2.42;;;;;;;14.52;63.98;103963.31;5034168;28;20072;-66
2021/12/17 20:48:01;;;;;;;3.42;2.50;;;;;;;14.52;63.82;103966.78;5033552;28;20426;-64
2021/12/17 20:50:28;;;;;;;3.88;2.55;;;;;;;14.53;63.83;103965.03;5032570;28;20037;-64
2021/12/17 20:52:54;;;;;;;2.60;2.30;;;;;;;14.49;64.01;103966.72;5032650;28;20042;-65
2021/12/17 20:55:21;;;;;;;2.78;2.40;;;;;;;14.54;63.87;103969.44;5030525;28;20030;-64
2021/12/17 20:57:47;;;;;;;3.60;2.40;;;;;;;14.53;63.98;103962.44;5047593;28;20033;-63
2021/12/17 21:00:19;;;;;;;3.58;2.50;;;;;;;14.54;63.95;103971.19;5049055;28;20033;-65
2021/12/17 21:02:45;;;;;;;3.67;2.47;;;;;;;14.54;63.97;103966.81;5050274;28;20035;-65
2021/12/17 21:05:10;;;;;;;4.03;2.57;;;;;;;14.51;64.07;103958.94;5036524;28;20029;-64
2021/12/17 21:07:36;;;;;;;3.57;2.40;;;;;;;14.55;64.09;103965.09;5030416;28;20116;-65
2021/12/17 21:10:03;;;;;;;4.13;2.50;;;;;;;14.52;64.23;103953.72;5031991;28;20629;-65
2021/12/17 21:12:30;;;;;;;2.92;2.35;;;;;;;14.56;64.10;103962.50;5047053;28;20108;-65
2021/12/17 21:14:56;;;;;;;4.10;2.35;;;;;;;14.55;63.94;103958.13;5054156;28;20108;-64
2021/12/17 21:17:21;;;;;;;2.40;2.17;;;;;;;14.47;63.91;103941.44;5053551;28;20527;-64
2021/12/17 21:19:47;;;;;;;3.60;2.30;;;;;;;14.59;64.20;103961.66;5054176;28;20261;-64
2021/12/17 21:22:12;;;;;;;3.40;2.60;;;;;;;14.59;64.12;103959.06;5053989;28;20087;-64
2021/12/17 21:24:38;;;;;;;2.50;2.30;;;;;;;14.54;64.03;103958.09;5054144;28;20025;-64
2021/12/17 21:27:03;;;;;;;3.10;2.43;;;;;;;14.56;64.13;103956.41;5053534;28;20414;-63
2021/12/17 21:29:29;;;;;;;2.97;2.50;;;;;;;14.59;63.91;103959.94;5043925;28;20026;-64
2021/12/17 21:31:56;;;;;;;4.10;2.53;;;;;;;14.54;64.24;103952.88;5032265;28;20061;-65
2021/12/17 21:34:22;;;;;;;3.67;2.60;;;;;;;14.56;64.10;103953.78;5033319;28;20338;-64
2021/12/17 21:36:47;;;;;;;3.07;2.43;;;;;;;14.59;64.15;103961.66;5041454;28;20155;-65
2021/12/17 21:39:13;;;;;;;4.23;2.60;;;;;;;14.61;64.14;103962.56;5053902;28;20037;-64
2021/12/17 21:41:39;;;;;;;3.23;2.53;;;;;;;14.61;64.13;103959.97;5048266;28;20033;-64
2021/12/17 21:44:05;;;;;;;3.97;2.67;;;;;;;14.60;63.97;103955.59;5052906;28;20463;-65
2021/12/17 21:46:31;;;;;;;4.28;2.80;;;;;;;14.59;64.29;103954.72;5053472;28;20043;-63
2021/12/17 21:48:57;;;;;;;3.05;2.40;;;;;;;14.61;64.25;103958.25;5053473;28;20083;-65
2021/12/17 21:51:23;;;;;;;3.90;2.67;;;;;;;14.58;64.21;103950.34;5053465;28;20033;-64
2021/12/17 21:53:49;;;;;;;3.93;2.40;;;;;;;14.61;64.46;103957.34;5053315;28;20036;-64
2021/12/17 21:56:16;;;;;;;3.23;2.40;;;;;;;14.61;64.35;103949.50;5053702;28;20757;-64
2021/12/17 21:58:43;;;;;;;3.20;2.35;;;;;;;14.54;64.50;103945.91;5052987;28;20044;-66
2021/12/17 22:01:09;;;;;;;3.75;2.55;;;;;;;14.61;64.35;103952.13;5052126;28;20029;-65
2021/12/17 22:03:37;;;;;;;2.85;2.40;;;;;;;14.59;64.38;103954.72;5053148;28;20033;-65
2021/12/17 22:06:03;;;;;;;4.25;2.40;;;;;;;14.61;64.42;103941.66;5043886;28;20147;-65
2021/12/17 22:08:30;;;;;;;2.40;2.20;;;;;;;14.59;64.44;103940.75;5053366;28;20028;-65
2021/12/17 22:10:57;;;;;;;3.05;2.08;;;;;;;14.56;64.58;103938.09;5046132;28;20091;-66
2021/12/17 22:13:23;;;;;;;4.65;2.50;;;;;;;14.54;64.57;103935.44;5043535;28;20475;-63
2021/12/17 22:15:50;;;;;;;2.70;2.30;;;;;;;14.58;64.48;103941.63;5047095;28;20387;-64
2021/12/17 22:18:19;;;;;;;2.63;2.25;;;;;;;14.58;64.44;103946.88;5049658;28;20033;-64
2021/12/17 22:21:27;;;;;;;2.55;2.20;;;;;;;14.55;64.53;103942.44;5053151;28;20025;-64
2021/12/17 22:23:38;;;;;;;2.92;2.30;;;;;;;14.56;64.53;103945.94;5052350;28;20040;-65
2021/12/17 22:26:04;;;;;;;2.50;2.30;;;;;;;14.54;64.69;103943.28;5052451;28;20060;-64
2021/12/17 22:28:29;;;;;;;2.50;2.30;;;;;;;14.52;64.33;103940.66;5051064;28;20049;-65
2021/12/17 22:30:55;;;;;;;2.93;2.37;;;;;;;14.56;64.47;103938.97;5052858;28;20075;-64
2021/12/17 22:33:21;;;;;;;3.03;2.50;;;;;;;14.52;64.51;103940.66;5052788;28;20059;-64
2021/12/17 22:35:47;;;;;;;2.60;2.20;;;;;;;14.51;64.40;103935.41;5052710;28;20464;-64
2021/12/17 22:38:15;;;;;;;2.65;2.17;;;;;;;14.54;64.26;103937.19;5039798;28;20422;-64
2021/12/17 22:40:51;;;;;;;3.15;2.40;;;;;;;14.56;64.62;103940.72;5051052;28;20032;-64
2021/12/17 22:43:18;;;;;;;2.65;2.38;;;;;;;14.59;64.59;103943.38;5059136;28;20040;-64
2021/12/17 22:45:44;;;;;;;3.10;2.40;;;;;;;14.60;64.33;103947.75;5047237;28;20087;-65
2021/12/17 22:48:15;;;;;;;3.20;2.43;;;;;;;14.58;64.42;103937.28;5051977;28;20028;-66
2021/12/17 22:50:41;;;;;;;3.10;2.38;;;;;;;14.62;64.10;103948.66;5047846;28;20040;-65
2021/12/17 22:53:06;;;;;;;3.78;2.30;;;;;;;14.60;64.28;103939.91;5049125;28;20032;-65
2021/12/17 22:55:32;;;;;;;4.57;2.37;;;;;;;14.63;64.32;103939.97;5043898;28;20057;-65
2021/12/17 22:57:57;;;;;;;3.47;2.20;;;;;;;14.61;64.60;103939.94;5068102;28;20083;-65
2021/12/17 23:00:53;;;;;;;4.53;2.40;;;;;;;14.66;64.69;103951.34;5068427;28;20443;-65
2021/12/17 23:03:26;;;;;;;4.05;2.42;;;;;;;14.63;64.79;103946.09;5067233;28;20032;-65
2021/12/17 23:05:52;;;;;;;4.07;2.30;;;;;;;14.61;65.14;103945.19;5055783;28;20124;-65
2021/12/17 23:08:29;;;;;;;3.05;2.30;;;;;;;14.61;64.64;103942.56;5053463;28;20032;-65
2021/12/17 23:10:57;;;;;;;3.50;2.30;;;;;;;14.58;64.54;103942.50;5053310;28;20036;-65
2021/12/17 23:13:23;;;;;;;3.00;2.20;;;;;;;14.60;64.83;103953.88;5060351;28;20017;-65
2021/12/17 23:15:49;;;;;;;3.00;2.22;;;;;;;14.61;64.82;103953.03;5070230;28;20028;-64
2021/12/17 23:18:14;;;;;;;3.77;2.17;;;;;;;14.56;64.67;103945.94;5053374;28;20032;-65
2021/12/17 23:20:39;;;;;;;3.50;2.50;;;;;;;14.59;64.80;103954.72;5061346;28;20086;-64
2021/12/17 23:23:05;;;;;;;2.37;2.13;;;;;;;14.56;64.89;103944.19;5062177;28;20029;-64
2021/12/17 23:25:30;;;;;;;3.67;2.00;;;;;;;14.59;64.81;103951.22;5068069;28;20143;-66
2021/12/17 23:27:56;;;;;;;2.93;2.30;;;;;;;14.57;64.72;103942.50;5055917;28;20057;-65
2021/12/17 23:30:22;;;;;;;2.57;2.20;;;;;;;14.54;64.63;103937.19;5067970;28;20040;-65
2021/12/17 23:32:53;;;;;;;2.60;2.20;;;;;;;14.57;64.69;103948.56;5062585;28;20032;-65
2021/12/17 23:35:21;;;;;;;2.38;2.00;;;;;;;14.52;64.82;103945.88;5059248;28;20033;-65
2021/12/17 23:37:50;;;;;;;3.17;2.10;;;;;;;14.57;64.64;103947.72;5069824;28;20044;-65
2021/12/17 23:40:17;;;;;;;2.53;2.10;;;;;;;14.54;64.54;103945.91;5058071;28;20035;-65
2021/12/17 23:42:42;;;;;;;3.10;2.00;;;;;;;14.61;64.43;103954.72;5064739;28;20111;-65
2021/12/17 23:45:09;;;;;;;2.40;2.20;;;;;;;14.59;64.52;103954.72;5064671;28;20115;-64
2021/12/17 23:47:34;;;;;;;;;;;;;;;14.66;64.40;103951.34;5057787;28;20039;-63
2021/12/17 23:50:00;;;;;;;2.53;2.10;;;;;;;14.52;64.46;103937.19;5068982;28;20294;-65
2021/12/17 23:52:25;;;;;;;2.60;2.00;;;;;;;14.60;64.49;103955.59;5055666;28;20024;-65
2021/12/17 23:54:51;;;;;;;2.27;2.07;;;;;;;14.57;64.45;103950.31;5046523;28;20029;-64
2021/12/17 23:57:16;;;;;;;3.07;2.30;;;;;;;14.58;64.50;103949.47;5042345;28;20399;-65
2021/12/17 23:59:42;;;;;;;2.30;2.10;;;;;;;14.61;64.63;103949.50;5065745;28;20033;-64
